sensor_id;sensor_type;location;lat;lon;timestamp;pressure;altitude;pressure_sealevel;temperature;humidity
31162;BME280;17796;49.296;-117.656;2024-02-28T00:03:31;96200;;;2.6321;24.6753
31162;BME280;17796;49.296;-117.656;2024-02-28T00:18:37;96200;;;2.80708;28.45907
31162;BME280;17796;49.296;-117.656;2024-02-28T00:33:41;96200;;;3.40189;23.92535
31162;BME280;17796;49.296;-117.656;2024-02-28T00:48:45;96200;;;3.48891;22.37845
31162;BME280;17796;49.296;-117.656;2024-02-28T01:03:49;96200;;;3.09607;28.94967
31162;BME280;17796;49.296;-117.656;2024-02-28T01:18:53;96200;;;2.37582;28.9082
31162;BME280;17796;49.296;-117.656;2024-02-28T01:33:56;96200;;;1.84579;32.35539
31162;BME280;17796;49.296;-117.656;2024-02-28T01:49:00;96200;;;1.5622;32.96958
31162;BME280;17796;49.296;-117.656;2024-02-28T02:04:04;96200;;;0.99948;32.50363
31162;BME280;17796;49.296;-117.656;2024-02-28T02:19:09;96300;;;0.85403;35.29885
31162;BME280;17796;49.296;-117.656;2024-02-28T02:34:13;96200;;;0.80322;35.60929
31162;BME280;17796;49.296;-117.656;2024-02-28T02:49:17;96200;;;0.04996;38.2208
31162;BME280;17796;49.296;-117.656;2024-02-28T03:04:20;96200;;;0.37229;35.77121
31162;BME280;17796;49.296;-117.656;2024-02-28T03:19:24;96200;;;0.61268;36.27431
31162;BME280;17796;49.296;-117.656;2024-02-28T03:34:28;96200;;;0.24748;39.24392
31162;BME280;17796;49.296;-117.656;2024-02-28T03:49:31;96200;;;-0.48513;41.22543
31162;BME280;17796;49.296;-117.656;2024-02-28T04:04:36;96200;;;0.11728;41.1156
31162;BME280;17796;49.296;-117.656;2024-02-28T04:19:39;96200;;;0.14682;39.99472
31162;BME280;17796;49.296;-117.656;2024-02-28T04:34:45;96200;;;-0.08024;49.22267
31162;BME280;17796;49.296;-117.656;2024-02-28T04:49:48;96300;;;-0.46576;48.7769
31162;BME280;17796;49.296;-117.656;2024-02-28T05:04:52;96300;;;-1.1844;52.98873
31162;BME280;17796;49.296;-117.656;2024-02-28T05:19:57;96300;;;-1.10278;60.18274
31162;BME280;17796;49.296;-117.656;2024-02-28T05:35:01;96300;;;-1.45527;75.25538
31162;BME280;17796;49.296;-117.656;2024-02-28T05:50:05;96300;;;-2.13707;91.68228
31162;BME280;17796;49.296;-117.656;2024-02-28T06:05:09;96200;;;-2.14215;100.0
31162;BME280;17796;49.296;-117.656;2024-02-28T06:20:13;96200;;;-0.77887;100.0
31162;BME280;17796;49.296;-117.656;2024-02-28T06:35:18;96200;;;-0.01959;96.06816
31162;BME280;17796;49.296;-117.656;2024-02-28T06:50:21;96200;;;-0.25998;100.0
31162;BME280;17796;49.296;-117.656;2024-02-28T07:05:25;96200;;;0.0452;96.06622
31162;BME280;17796;49.296;-117.656;2024-02-28T07:20:29;96200;;;-0.26633;100.0
31162;BME280;17796;49.296;-117.656;2024-02-28T07:35:32;96200;;;-0.72267;100.0
31162;BME280;17796;49.296;-117.656;2024-02-28T07:50:46;96200;;;-1.63596;100.0
31162;BME280;17796;49.296;-117.656;2024-02-28T08:05:49;96200;;;-1.29141;100.0
31162;BME280;17796;49.296;-117.656;2024-02-28T08:20:53;96100;;;-1.77855;100.0
31162;BME280;17796;49.296;-117.656;2024-02-28T08:35:57;96100;;;-1.87191;100.0
31162;BME280;17796;49.296;-117.656;2024-02-28T08:51:01;96100;;;-2.28695;100.0
31162;BME280;17796;49.296;-117.656;2024-02-28T09:06:06;96100;;;-2.2082;100.0
31162;BME280;17796;49.296;-117.656;2024-02-28T09:21:10;96100;;;-2.16565;100.0
31162;BME280;17796;49.296;-117.656;2024-02-28T09:36:14;96100;;;-1.94177;100.0
31162;BME280;17796;49.296;-117.656;2024-02-28T09:51:18;96100;;;-1.10215;100.0
31162;BME280;17796;49.296;-117.656;2024-02-28T10:06:23;96000;;;-0.68837;100.0
31162;BME280;17796;49.296;-117.656;2024-02-28T10:21:29;96000;;;-0.61247;100.0
31162;BME280;17796;49.296;-117.656;2024-02-28T10:36:33;96000;;;-0.52673;100.0
31162;BME280;17796;49.296;-117.656;2024-02-28T10:51:38;96000;;;-0.90304;100.0
31162;BME280;17796;49.296;-117.656;2024-02-28T11:06:48;95900;;;-0.73188;100.0
31162;BME280;17796;49.296;-117.656;2024-02-28T11:21:54;95900;;;-0.5623;100.0
31162;BME280;17796;49.296;-117.656;2024-02-28T11:36:58;95900;;;-0.5226;100.0
31162;BME280;17796;49.296;-117.656;2024-02-28T11:52:02;95900;;;-0.47751;100.0
31162;BME280;17796;49.296;-117.656;2024-02-28T12:07:06;95900;;;-0.66265;100.0
31162;BME280;17796;49.296;-117.656;2024-02-28T12:22:11;95900;;;-0.72489;100.0
31162;BME280;17796;49.296;-117.656;2024-02-28T12:37:16;95800;;;-1.06785;100.0
31162;BME280;17796;49.296;-117.656;2024-02-28T12:52:20;95800;;;-0.82714;100.0
31162;BME280;17796;49.296;-117.656;2024-02-28T13:07:23;95800;;;-0.58643;100.0
31162;BME280;17796;49.296;-117.656;2024-02-28T13:22:28;95800;;;-0.43305;100.0
31162;BME280;17796;49.296;-117.656;2024-02-28T13:37:32;95800;;;-1.246;100.0
31162;BME280;17796;49.296;-117.656;2024-02-28T13:52:36;95800;;;-1.28221;100.0
31162;BME280;17796;49.296;-117.656;2024-02-28T14:07:40;95700;;;-1.69535;100.0
31162;BME280;17796;49.296;-117.656;2024-02-28T14:22:43;95700;;;-0.95194;100.0
31162;BME280;17796;49.296;-117.656;2024-02-28T14:37:48;95700;;;-0.97386;100.0
31162;BME280;17796;49.296;-117.656;2024-02-28T14:52:51;95700;;;-1.0434;100.0
31162;BME280;17796;49.296;-117.656;2024-02-28T15:07:55;95700;;;-1.11072;100.0
31162;BME280;17796;49.296;-117.656;2024-02-28T15:22:59;95700;;;-0.87954;100.0
31162;BME280;17796;49.296;-117.656;2024-02-28T15:38:02;95700;;;-0.95385;100.0
31162;BME280;17796;49.296;-117.656;2024-02-28T15:53:07;95700;;;-0.94178;100.0
31162;BME280;17796;49.296;-117.656;2024-02-28T16:08:11;95600;;;-0.57468;100.0
31162;BME280;17796;49.296;-117.656;2024-02-28T16:23:15;95600;;;-0.43242;100.0
31162;BME280;17796;49.296;-117.656;2024-02-28T16:38:19;95600;;;-0.48386;100.0
31162;BME280;17796;49.296;-117.656;2024-02-28T16:53:23;95600;;;0.01026;100.0
31162;BME280;17796;49.296;-117.656;2024-02-28T17:08:27;95600;;;0.47518;100.0
31162;BME280;17796;49.296;-117.656;2024-02-28T17:23:31;95500;;;0.09728;100.0
31162;BME280;17796;49.296;-117.656;2024-02-28T17:38:35;95600;;;-0.33588;100.0
31162;BME280;17796;49.296;-117.656;2024-02-28T17:53:39;95500;;;-0.08945;100.0
31162;BME280;17796;49.296;-117.656;2024-02-28T18:08:42;95500;;;0.32465;100.0
31162;BME280;17796;49.296;-117.656;2024-02-28T18:23:46;95500;;;0.78036;100.0
31162;BME280;17796;49.296;-117.656;2024-02-28T18:38:50;95500;;;0.97725;100.0
31162;BME280;17796;49.296;-117.656;2024-02-28T18:53:53;95500;;;0.85403;100.0
31162;BME280;17796;49.296;-117.656;2024-02-28T19:08:57;95500;;;-0.26538;100.0
31162;BME280;17796;49.296;-117.656;2024-02-28T19:24:01;95500;;;-0.02245;100.0
31162;BME280;17796;49.296;-117.656;2024-02-28T19:39:06;95400;;;0.14491;100.0
31162;BME280;17796;49.296;-117.656;2024-02-28T19:54:11;95400;;;0.25574;100.0
31162;BME280;17796;49.296;-117.656;2024-02-28T20:09:16;95400;;;0.39324;100.0
31162;BME280;17796;49.296;-117.656;2024-02-28T20:24:19;95300;;;0.35228;100.0
31162;BME280;17796;49.296;-117.656;2024-02-28T20:39:23;95300;;;-0.04182;100.0
31162;BME280;17796;49.296;-117.656;2024-02-28T20:54:27;95300;;;-0.28697;100.0
31162;BME280;17796;49.296;-117.656;2024-02-28T21:09:32;95300;;;0.94041;100.0
31162;BME280;17796;49.296;-117.656;2024-02-28T21:24:36;95300;;;0.97947;100.0
31162;BME280;17796;49.296;-117.656;2024-02-28T21:39:41;95200;;;0.93088;100.0
31162;BME280;17796;49.296;-117.656;2024-02-28T21:54:44;95200;;;1.09824;100.0
31162;BME280;17796;49.296;-117.656;2024-02-28T22:09:48;95200;;;1.81277;100.0
31162;BME280;17796;49.296;-117.656;2024-02-28T22:24:52;95200;;;2.01537;100.0
31162;BME280;17796;49.296;-117.656;2024-02-28T22:39:55;95200;;;1.69685;100.0
31162;BME280;17796;49.296;-117.656;2024-02-28T22:54:59;95200;;;2.40186;100.0
31162;BME280;17796;49.296;-117.656;2024-02-28T23:10:03;95200;;;1.93662;100.0
31162;BME280;17796;49.296;-117.656;2024-02-28T23:25:07;95100;;;1.94551;100.0
31162;BME280;17796;49.296;-117.656;2024-02-28T23:40:11;95100;;;1.77053;100.0
31162;BME280;17796;49.296;-117.656;2024-02-28T23:55:15;95100;;;1.84103;100.0
